Terminal Aerodrome Forecast
Issued by NWS

Home | Current Version | Previous Version | Text Only | Print | Product List | Glossary On
Versions: 1 2 3 4 5 6 7 8 9 10 11 12 13 14 15
490
FTUS44 KEPZ 191721
TAFLRU
TAF
KLRU 191721Z 1918/2018 12008KT P6SM SCT060 SCT120 BKN200
     FM192200 15010KT P6SM VCTS SCT050CB BKN100 BKN200
      TEMPO 1923/2003 VRB25G35KT 2SM TSRA BKN040CB BKN100
     FM200500 28010KT 6SM SHRA SCT020 BKN040 OVC100
      TEMPO 2005/2009 1SM +TSRA BKN015CB
     FM201000 VRB04KT 5SM SHRA BKN015 BKN030
     FM201500 12005KT P6SM VCSH SCT015 BKN040=

USA.gov is the U.S. government's official web portal to all federal, state and local government web resources and services.